createdAt,value
2023-05-17T00:00:19.179Z,20.53
2023-05-17T00:00:50.515Z,20.55
2023-05-17T00:01:21.838Z,20.53
2023-05-17T00:01:53.198Z,20.54
2023-05-17T00:02:24.690Z,20.54
2023-05-17T00:02:56.164Z,20.55
2023-05-17T00:03:27.540Z,20.52
2023-05-17T00:03:58.903Z,20.50
2023-05-17T00:04:30.310Z,20.49
2023-05-17T00:05:01.759Z,20.49
2023-05-17T00:05:33.125Z,20.51
2023-05-17T00:06:04.580Z,20.49
2023-05-17T00:06:36.082Z,20.53
2023-05-17T00:07:07.448Z,20.51
2023-05-17T00:07:38.759Z,20.51
2023-05-17T00:08:10.091Z,20.51
2023-05-17T00:08:41.444Z,20.51
2023-05-17T00:09:12.749Z,20.49
2023-05-17T00:09:44.120Z,20.49
2023-05-17T00:10:15.438Z,20.48
2023-05-17T00:10:46.801Z,20.47
2023-05-17T00:11:18.086Z,20.50
2023-05-17T00:11:49.412Z,20.52
2023-05-17T00:12:20.723Z,20.52
2023-05-17T00:12:52.137Z,20.53
2023-05-17T00:13:23.468Z,20.52
2023-05-17T00:13:54.786Z,20.52
2023-05-17T00:14:26.156Z,20.51
2023-05-17T00:14:57.507Z,20.51
2023-05-17T00:15:29.025Z,20.52
2023-05-17T00:16:00.659Z,20.52
2023-05-17T00:16:31.997Z,20.49
2023-05-17T00:17:03.390Z,20.51
2023-05-17T00:17:34.820Z,20.51
2023-05-17T00:18:06.391Z,20.50
2023-05-17T00:18:38.070Z,20.49
2023-05-17T00:19:09.856Z,20.48
2023-05-17T00:19:41.373Z,20.50
2023-05-17T00:20:12.830Z,20.55
2023-05-17T00:20:44.136Z,20.50
2023-05-17T00:21:15.563Z,20.49
2023-05-17T00:21:46.920Z,20.53
2023-05-17T00:22:18.261Z,20.51
2023-05-17T00:22:49.630Z,20.52
2023-05-17T00:23:20.982Z,20.51
2023-05-17T00:23:52.305Z,20.50
2023-05-17T00:24:23.632Z,20.49
2023-05-17T00:24:54.981Z,20.52
2023-05-17T00:25:26.402Z,20.52
2023-05-17T00:25:57.799Z,20.53
2023-05-17T00:26:29.128Z,20.53
2023-05-17T00:27:00.579Z,20.53
2023-05-17T00:27:31.940Z,20.54
2023-05-17T00:28:03.283Z,20.53
2023-05-17T00:28:34.590Z,20.54
2023-05-17T00:29:05.897Z,20.54
2023-05-17T00:29:37.218Z,20.57
2023-05-17T00:30:08.621Z,20.56
2023-05-17T00:30:39.953Z,20.58
2023-05-17T00:31:11.285Z,20.59
2023-05-17T00:31:42.605Z,20.58
2023-05-17T00:32:13.947Z,20.56
2023-05-17T00:32:45.344Z,20.58
2023-05-17T00:33:16.721Z,20.58
2023-05-17T00:33:48.064Z,20.58
2023-05-17T00:34:19.401Z,20.59
2023-05-17T00:34:50.725Z,20.59
2023-05-17T00:35:22.384Z,20.62
2023-05-17T00:35:53.838Z,20.61
2023-05-17T00:36:25.173Z,20.60
2023-05-17T00:36:56.474Z,20.60
2023-05-17T00:37:27.903Z,20.59
2023-05-17T00:37:59.314Z,20.61
2023-05-17T00:38:30.636Z,20.61
2023-05-17T00:39:02.010Z,20.62
2023-05-17T00:39:33.426Z,20.61
2023-05-17T00:40:05.258Z,20.62
2023-05-17T00:40:36.594Z,20.63
2023-05-17T00:41:08.002Z,20.60
2023-05-17T00:41:39.303Z,20.59
2023-05-17T00:42:11.036Z,20.58
2023-05-17T00:42:42.356Z,20.57
2023-05-17T00:43:13.683Z,20.59
2023-05-17T00:43:45.034Z,20.58
2023-05-17T00:44:16.371Z,20.57
2023-05-17T00:44:47.699Z,20.57
2023-05-17T00:45:19.102Z,20.57
2023-05-17T00:45:50.484Z,20.59
2023-05-17T00:46:21.816Z,20.58
2023-05-17T00:46:53.149Z,20.56
2023-05-17T00:47:24.485Z,20.55
2023-05-17T00:47:55.983Z,20.55
2023-05-17T00:48:28.366Z,20.58
2023-05-17T00:48:59.882Z,20.56
2023-05-17T00:49:31.275Z,20.55
2023-05-17T00:50:02.832Z,20.54
2023-05-17T00:50:34.266Z,20.55
2023-05-17T00:51:05.648Z,20.57
2023-05-17T00:51:36.971Z,20.54
2023-05-17T00:52:08.322Z,20.53
2023-05-17T00:52:39.635Z,20.53
2023-05-17T00:53:10.953Z,20.53
2023-05-17T00:53:42.303Z,20.51
2023-05-17T00:54:13.602Z,20.53
2023-05-17T00:54:45.119Z,20.52
2023-05-17T00:55:16.449Z,20.51
2023-05-17T00:55:47.762Z,20.53
2023-05-17T00:56:19.056Z,20.54
2023-05-17T00:56:50.385Z,20.53
2023-05-17T00:57:21.731Z,20.55
2023-05-17T00:57:53.200Z,20.55
2023-05-17T00:58:24.546Z,20.57
2023-05-17T00:58:55.877Z,20.56
2023-05-17T00:59:27.262Z,20.53
2023-05-17T00:59:58.591Z,20.52
2023-05-17T01:00:29.953Z,20.52
2023-05-17T01:01:01.295Z,20.51
2023-05-17T01:01:32.633Z,20.51
2023-05-17T01:02:04.128Z,20.51
2023-05-17T01:02:35.532Z,20.54
2023-05-17T01:03:07.037Z,20.56
2023-05-17T01:03:38.732Z,20.55
2023-05-17T01:04:10.315Z,20.57
2023-05-17T01:04:41.900Z,20.55
2023-05-17T01:05:13.259Z,20.57
2023-05-17T01:05:44.648Z,20.58
2023-05-17T01:06:15.980Z,20.54
2023-05-17T01:06:47.367Z,20.53
2023-05-17T01:07:18.697Z,20.55
2023-05-17T01:07:50.041Z,20.53
2023-05-17T01:08:21.351Z,20.54
2023-05-17T01:08:52.731Z,20.53
2023-05-17T01:09:24.074Z,20.54
2023-05-17T01:09:55.382Z,20.54
2023-05-17T01:10:30.423Z,20.53
2023-05-17T01:11:06.337Z,20.53
2023-05-17T01:11:56.163Z,20.53
2023-05-17T01:12:32.658Z,20.53
2023-05-17T01:13:03.982Z,20.51
2023-05-17T01:13:46.858Z,20.50
2023-05-17T01:14:18.134Z,20.52
2023-05-17T01:15:03.161Z,20.53
2023-05-17T01:15:35.081Z,20.50
2023-05-17T01:16:10.783Z,20.52
2023-05-17T01:17:00.696Z,20.53
2023-05-17T01:17:41.242Z,20.53
2023-05-17T01:18:17.440Z,20.55
2023-05-17T01:18:52.397Z,20.54
2023-05-17T01:19:42.718Z,20.56
2023-05-17T01:20:14.058Z,20.58
2023-05-17T01:20:45.477Z,20.56
2023-05-17T01:21:39.941Z,20.57
2023-05-17T01:22:15.793Z,20.55
2023-05-17T01:23:02.367Z,20.54
2023-05-17T01:23:43.193Z,20.56
2023-05-17T01:24:25.191Z,20.55
2023-05-17T01:25:14.191Z,20.55
2023-05-17T01:25:57.561Z,20.55
2023-05-17T01:26:36.986Z,20.56
2023-05-17T01:27:08.322Z,20.54
2023-05-17T01:27:40.016Z,20.55
2023-05-17T01:28:11.373Z,20.57
2023-05-17T01:28:43.881Z,20.59
2023-05-17T01:29:15.194Z,20.58
2023-05-17T01:29:46.535Z,20.58
2023-05-17T01:30:18.165Z,20.57
2023-05-17T01:30:50.197Z,20.57
2023-05-17T01:31:21.569Z,20.56
2023-05-17T01:31:53.238Z,20.55
2023-05-17T01:32:24.807Z,20.55
2023-05-17T01:32:56.507Z,20.57
2023-05-17T01:33:27.988Z,20.56
2023-05-17T01:33:59.409Z,20.57
2023-05-17T01:34:30.775Z,20.57
2023-05-17T01:35:04.052Z,20.54
2023-05-17T01:35:35.369Z,20.56
2023-05-17T01:36:06.942Z,20.57
2023-05-17T01:36:38.304Z,20.57
2023-05-17T01:37:09.655Z,20.59
2023-05-17T01:37:41.003Z,20.58
2023-05-17T01:38:12.329Z,20.58
2023-05-17T01:38:43.657Z,20.54
2023-05-17T01:39:14.946Z,20.55
2023-05-17T01:39:46.367Z,20.54
2023-05-17T01:40:17.700Z,20.54
2023-05-17T01:40:52.352Z,20.52
2023-05-17T01:41:27.369Z,20.52
2023-05-17T01:42:00.241Z,20.54
2023-05-17T01:42:32.148Z,20.52
2023-05-17T01:43:35.753Z,20.52
2023-05-17T01:44:18.775Z,20.52
2023-05-17T01:44:57.013Z,20.51
2023-05-17T01:45:30.631Z,20.53
2023-05-17T01:46:16.352Z,20.57
2023-05-17T01:46:47.739Z,20.56
2023-05-17T01:47:24.727Z,20.56
2023-05-17T01:47:59.625Z,20.58
2023-05-17T01:48:39.322Z,20.56
2023-05-17T01:49:29.322Z,20.58
2023-05-17T01:50:00.650Z,20.57
2023-05-17T01:50:32.670Z,20.57
2023-05-17T01:51:04.094Z,20.56
2023-05-17T01:51:37.120Z,20.55
2023-05-17T01:52:17.493Z,20.55
2023-05-17T01:52:48.782Z,20.55
2023-05-17T01:53:29.004Z,20.55
2023-05-17T01:54:05.092Z,20.56
2023-05-17T01:54:37.202Z,20.59
2023-05-17T01:55:37.338Z,20.59
2023-05-17T01:56:09.584Z,20.56
2023-05-17T01:56:43.906Z,20.55
2023-05-17T01:57:15.238Z,20.55
2023-05-17T01:57:46.897Z,20.54
2023-05-17T01:58:18.419Z,20.54
2023-05-17T01:58:49.724Z,20.53
2023-05-17T01:59:22.389Z,20.54
2023-05-17T01:59:53.688Z,20.55
2023-05-17T02:00:25.244Z,20.56
2023-05-17T02:00:56.830Z,20.54
2023-05-17T02:01:28.157Z,20.56
2023-05-17T02:01:59.624Z,20.56
2023-05-17T02:02:31.056Z,20.56
2023-05-17T02:03:02.571Z,20.55
2023-05-17T02:03:33.952Z,20.56
2023-05-17T02:04:05.341Z,20.56
2023-05-17T02:04:36.765Z,20.58
2023-05-17T02:05:08.420Z,20.59
2023-05-17T02:05:39.831Z,20.57
2023-05-17T02:06:11.182Z,20.55
2023-05-17T02:06:42.505Z,20.54
2023-05-17T02:07:13.827Z,20.53
2023-05-17T02:07:45.176Z,20.54
2023-05-17T02:08:16.474Z,20.54
2023-05-17T02:08:47.842Z,20.56
2023-05-17T02:09:19.185Z,20.57
2023-05-17T02:09:50.556Z,20.57
2023-05-17T02:10:21.982Z,20.56
2023-05-17T02:10:53.421Z,20.56
2023-05-17T02:11:24.752Z,20.56
2023-05-17T02:11:56.203Z,20.57
2023-05-17T02:12:27.540Z,20.55
2023-05-17T02:12:58.888Z,20.54
2023-05-17T02:13:30.273Z,20.57
2023-05-17T02:14:01.599Z,20.55
2023-05-17T02:14:32.959Z,20.57
2023-05-17T02:15:04.490Z,20.60
2023-05-17T02:15:35.802Z,20.61
2023-05-17T02:16:07.160Z,20.60
2023-05-17T02:16:38.498Z,20.58
2023-05-17T02:17:09.805Z,20.59
2023-05-17T02:17:41.236Z,20.57
2023-05-17T02:18:12.758Z,20.59
2023-05-17T02:18:44.149Z,20.59
2023-05-17T02:19:15.596Z,20.58
2023-05-17T02:19:46.979Z,20.58
2023-05-17T02:20:18.374Z,20.58
2023-05-17T02:20:49.707Z,20.58
2023-05-17T02:21:21.018Z,20.57
2023-05-17T02:21:52.383Z,20.56
2023-05-17T02:22:23.708Z,20.56
2023-05-17T02:22:55.039Z,20.54
2023-05-17T02:23:26.356Z,20.56
2023-05-17T02:23:57.684Z,20.60
2023-05-17T02:24:29.045Z,20.59
2023-05-17T02:25:00.369Z,20.58
2023-05-17T02:25:31.806Z,20.60
2023-05-17T02:26:03.207Z,20.62
2023-05-17T02:26:34.537Z,20.57
2023-05-17T02:27:05.999Z,20.59
2023-05-17T02:27:37.354Z,20.56
2023-05-17T02:28:08.700Z,20.56
2023-05-17T02:28:40.081Z,20.55
2023-05-17T02:29:11.480Z,20.57
2023-05-17T02:29:42.859Z,20.56
2023-05-17T02:30:15.800Z,20.57
2023-05-17T02:30:49.162Z,20.56
2023-05-17T02:31:20.513Z,20.56
2023-05-17T02:31:51.869Z,20.57
2023-05-17T02:32:23.316Z,20.56
2023-05-17T02:32:54.758Z,20.57
2023-05-17T02:33:26.249Z,20.57
2023-05-17T02:33:57.646Z,20.56
2023-05-17T02:34:28.992Z,20.56
2023-05-17T02:35:00.352Z,20.56
2023-05-17T02:35:31.757Z,20.57
2023-05-17T02:36:03.166Z,20.57
2023-05-17T02:36:34.504Z,20.57
2023-05-17T02:37:05.858Z,20.55
2023-05-17T02:37:37.195Z,20.56
2023-05-17T02:38:08.587Z,20.56
2023-05-17T02:38:39.892Z,20.57
2023-05-17T02:39:11.249Z,20.56
2023-05-17T02:39:42.574Z,20.55
2023-05-17T02:40:13.921Z,20.54
2023-05-17T02:40:45.266Z,20.56
2023-05-17T02:41:16.600Z,20.56
2023-05-17T02:41:48.026Z,20.54
2023-05-17T02:42:19.404Z,20.56
2023-05-17T02:42:50.724Z,20.57
2023-05-17T02:43:22.036Z,20.55
2023-05-17T02:43:53.369Z,20.54
2023-05-17T02:44:24.705Z,20.53
2023-05-17T02:44:56.045Z,20.52
2023-05-17T02:45:27.530Z,20.54
2023-05-17T02:45:59.102Z,20.54
2023-05-17T02:46:30.423Z,20.55
2023-05-17T02:47:01.806Z,20.55
2023-05-17T02:47:33.167Z,20.54
2023-05-17T02:48:04.594Z,20.54
2023-05-17T02:48:35.962Z,20.54
2023-05-17T02:49:07.256Z,20.53
2023-05-17T02:49:38.609Z,20.52
2023-05-17T02:50:10.074Z,20.51
2023-05-17T02:50:41.471Z,20.52
2023-05-17T02:51:12.786Z,20.52
2023-05-17T02:51:44.132Z,20.53
2023-05-17T02:52:15.645Z,20.53
2023-05-17T02:52:48.992Z,20.53
2023-05-17T02:53:20.437Z,20.53
2023-05-17T02:53:51.765Z,20.53
2023-05-17T02:54:23.133Z,20.53
2023-05-17T02:54:54.434Z,20.54
2023-05-17T02:55:25.965Z,20.52
2023-05-17T02:55:57.445Z,20.51
2023-05-17T02:56:28.749Z,20.52
2023-05-17T02:57:00.051Z,20.53
2023-05-17T02:57:31.439Z,20.55
2023-05-17T02:58:02.913Z,20.53
2023-05-17T02:58:34.226Z,20.52
2023-05-17T02:59:05.580Z,20.53
2023-05-17T02:59:37.100Z,20.54
2023-05-17T03:00:08.586Z,20.53
2023-05-17T03:00:39.923Z,20.52
2023-05-17T03:01:11.260Z,20.51
2023-05-17T03:01:42.572Z,20.51
2023-05-17T03:02:13.924Z,20.51
2023-05-17T03:02:45.372Z,20.50
2023-05-17T03:03:16.890Z,20.52
2023-05-17T03:03:48.506Z,20.51
2023-05-17T03:04:20.029Z,20.51
2023-05-17T03:04:51.419Z,20.53
2023-05-17T03:05:22.907Z,20.52
2023-05-17T03:05:54.225Z,20.53
2023-05-17T03:06:25.591Z,20.54
2023-05-17T03:06:56.893Z,20.52
2023-05-17T03:07:28.225Z,20.53
2023-05-17T03:07:59.526Z,20.53
2023-05-17T03:08:30.854Z,20.50
2023-05-17T03:09:02.129Z,20.51
2023-05-17T03:09:33.473Z,20.48
2023-05-17T03:10:04.967Z,20.50
2023-05-17T03:10:36.274Z,20.49
2023-05-17T03:11:07.587Z,20.49
2023-05-17T03:11:39.003Z,20.52
2023-05-17T03:12:10.304Z,20.53
2023-05-17T03:12:41.598Z,20.51
2023-05-17T03:13:12.918Z,20.53
2023-05-17T03:13:44.216Z,20.52
2023-05-17T03:14:15.518Z,20.52
2023-05-17T03:14:46.835Z,20.53
2023-05-17T03:15:18.225Z,20.55
2023-05-17T03:15:49.561Z,20.53
2023-05-17T03:16:20.879Z,20.53
2023-05-17T03:16:52.310Z,20.52
2023-05-17T03:17:23.709Z,20.53
2023-05-17T03:17:55.521Z,20.54
2023-05-17T03:18:27.067Z,20.57
2023-05-17T03:18:58.681Z,20.57
2023-05-17T03:19:30.132Z,20.55
2023-05-17T03:20:01.510Z,20.56
2023-05-17T03:20:32.815Z,20.54
2023-05-17T03:21:04.138Z,20.52
2023-05-17T03:21:35.458Z,20.54
2023-05-17T03:22:06.783Z,20.54
2023-05-17T03:22:38.106Z,20.54
2023-05-17T03:23:09.432Z,20.54
2023-05-17T03:23:40.824Z,20.53
2023-05-17T03:24:12.126Z,20.54
2023-05-17T03:24:43.424Z,20.53
2023-05-17T03:25:14.736Z,20.54
2023-05-17T03:25:46.046Z,20.53
2023-05-17T03:26:17.386Z,20.52
2023-05-17T03:26:48.708Z,20.53
2023-05-17T03:27:20.087Z,20.55
2023-05-17T03:27:51.443Z,20.54
2023-05-17T03:28:22.773Z,20.55
2023-05-17T03:28:54.146Z,20.57
2023-05-17T03:29:25.442Z,20.57
2023-05-17T03:29:56.780Z,20.55
2023-05-17T03:30:28.203Z,20.57
2023-05-17T03:30:59.672Z,20.58
2023-05-17T03:31:31.121Z,20.56
2023-05-17T03:32:02.493Z,20.55
2023-05-17T03:32:33.944Z,20.56
2023-05-17T03:33:05.368Z,20.57
2023-05-17T03:33:36.889Z,20.55
2023-05-17T03:34:08.319Z,20.55
2023-05-17T03:34:39.690Z,20.54
2023-05-17T03:35:11.010Z,20.54
2023-05-17T03:35:42.340Z,20.58
2023-05-17T03:36:13.952Z,20.60
2023-05-17T03:36:45.273Z,20.59
2023-05-17T03:37:16.588Z,20.61
2023-05-17T03:37:47.916Z,20.61
2023-05-17T03:38:19.221Z,20.62
2023-05-17T03:38:50.571Z,20.62
2023-05-17T03:39:21.927Z,20.61
2023-05-17T03:39:53.260Z,20.61
2023-05-17T03:40:24.604Z,20.60
2023-05-17T03:40:55.953Z,20.59
2023-05-17T03:41:27.437Z,20.61
2023-05-17T03:41:58.763Z,20.59
2023-05-17T03:42:30.076Z,20.59
2023-05-17T03:43:01.458Z,20.57
2023-05-17T03:43:32.786Z,20.57
2023-05-17T03:44:04.127Z,20.59
2023-05-17T03:44:35.447Z,20.56
2023-05-17T03:45:07.010Z,20.55
2023-05-17T03:45:38.429Z,20.53
2023-05-17T03:46:09.741Z,20.54
2023-05-17T03:46:41.119Z,20.56
2023-05-17T03:47:12.475Z,20.57
2023-05-17T03:47:43.856Z,20.59
2023-05-17T03:48:15.285Z,20.59
2023-05-17T03:48:46.659Z,20.60
2023-05-17T03:49:18.115Z,20.59
2023-05-17T03:49:49.770Z,20.59
2023-05-17T03:50:21.079Z,20.58
2023-05-17T03:50:52.382Z,20.57
2023-05-17T03:51:23.687Z,20.57
2023-05-17T03:51:55.052Z,20.57
2023-05-17T03:52:26.364Z,20.60
2023-05-17T03:52:57.695Z,20.61
2023-05-17T03:53:29.034Z,20.62
2023-05-17T03:54:00.510Z,20.61
2023-05-17T03:54:31.827Z,20.62
2023-05-17T03:55:03.190Z,20.62
2023-05-17T03:55:34.550Z,20.61
2023-05-17T03:56:05.953Z,20.62
2023-05-17T03:56:37.359Z,20.62
2023-05-17T03:57:08.735Z,20.61
2023-05-17T03:57:40.081Z,20.62
2023-05-17T03:58:11.403Z,20.63
2023-05-17T03:58:42.725Z,20.64
2023-05-17T03:59:14.049Z,20.65
2023-05-17T03:59:45.446Z,20.65
2023-05-17T04:00:16.824Z,20.66
2023-05-17T04:00:48.248Z,20.66
2023-05-17T04:01:19.574Z,20.65
2023-05-17T04:01:50.897Z,20.65
2023-05-17T04:02:22.356Z,20.65
2023-05-17T04:02:53.700Z,20.62
2023-05-17T04:03:25.066Z,20.63
2023-05-17T04:03:56.451Z,20.64
2023-05-17T04:04:27.984Z,20.65
2023-05-17T04:04:59.415Z,20.66
2023-05-17T04:05:31.082Z,20.65
2023-05-17T04:06:05.406Z,20.65
2023-05-17T04:06:36.808Z,20.65
2023-05-17T04:07:08.144Z,20.65
2023-05-17T04:07:39.502Z,20.65
2023-05-17T04:08:10.852Z,20.63
2023-05-17T04:08:42.167Z,20.64
2023-05-17T04:09:13.566Z,20.64
2023-05-17T04:09:44.955Z,20.63
2023-05-17T04:10:16.306Z,20.61
2023-05-17T04:10:47.637Z,20.61
2023-05-17T04:11:18.994Z,20.61
2023-05-17T04:11:50.325Z,20.62
2023-05-17T04:12:21.662Z,20.63
2023-05-17T04:12:53.017Z,20.60
2023-05-17T04:13:24.357Z,20.64
2023-05-17T04:13:55.672Z,20.62
2023-05-17T04:14:27.065Z,20.59
2023-05-17T04:14:58.370Z,20.61
2023-05-17T04:15:29.794Z,20.61
2023-05-17T04:16:01.232Z,20.63
2023-05-17T04:16:32.641Z,20.62
2023-05-17T04:17:03.993Z,20.62
2023-05-17T04:17:35.381Z,20.61
2023-05-17T04:18:06.856Z,20.63
2023-05-17T04:18:38.582Z,20.63
2023-05-17T04:19:10.148Z,20.63
2023-05-17T04:19:41.655Z,20.61
2023-05-17T04:20:13.029Z,20.63
2023-05-17T04:20:44.353Z,20.63
2023-05-17T04:21:15.689Z,20.63
2023-05-17T04:21:47.027Z,20.62
2023-05-17T04:22:18.371Z,20.61
2023-05-17T04:22:49.694Z,20.63
2023-05-17T04:23:21.037Z,20.62
2023-05-17T04:23:52.378Z,20.60
2023-05-17T04:24:23.674Z,20.63
2023-05-17T04:24:55.007Z,20.61
2023-05-17T04:25:26.485Z,20.62
2023-05-17T04:25:57.974Z,20.60
2023-05-17T04:26:29.294Z,20.58
2023-05-17T04:27:03.277Z,20.59
2023-05-17T04:27:34.880Z,20.58
2023-05-17T04:28:06.207Z,20.59
2023-05-17T04:28:37.539Z,20.58
2023-05-17T04:29:08.890Z,20.59
2023-05-17T04:29:40.180Z,20.60
2023-05-17T04:30:11.904Z,20.61
2023-05-17T04:30:43.301Z,20.62
2023-05-17T04:31:15.432Z,20.62
2023-05-17T04:31:46.776Z,20.63
2023-05-17T04:32:18.096Z,20.62
2023-05-17T04:32:49.536Z,20.64
2023-05-17T04:33:20.951Z,20.65
2023-05-17T04:33:52.437Z,20.65
2023-05-17T04:34:23.823Z,20.65
2023-05-17T04:34:55.151Z,20.64
2023-05-17T04:35:26.620Z,20.66
2023-05-17T04:35:57.987Z,20.67
2023-05-17T04:36:29.328Z,20.65
2023-05-17T04:37:00.653Z,20.64
2023-05-17T04:37:31.987Z,20.65
2023-05-17T04:38:03.307Z,20.65
2023-05-17T04:38:34.639Z,20.67
2023-05-17T04:39:05.953Z,20.66
2023-05-17T04:39:37.313Z,20.69
2023-05-17T04:40:08.882Z,20.69
2023-05-17T04:40:40.209Z,20.69
2023-05-17T04:41:11.623Z,20.69
2023-05-17T04:41:42.922Z,20.70
2023-05-17T04:42:14.220Z,20.70
2023-05-17T04:42:45.552Z,20.70
2023-05-17T04:43:16.891Z,20.70
2023-05-17T04:43:48.260Z,20.71
2023-05-17T04:44:19.625Z,20.70
2023-05-17T04:44:50.952Z,20.70
2023-05-17T04:45:22.270Z,20.71
2023-05-17T04:45:57.151Z,20.70
2023-05-17T04:46:28.461Z,20.69
2023-05-17T04:46:59.836Z,20.70
2023-05-17T04:47:31.201Z,20.70
2023-05-17T04:48:02.686Z,20.72
2023-05-17T04:48:34.192Z,20.72
2023-05-17T04:49:05.609Z,20.70
2023-05-17T04:49:36.917Z,20.71
2023-05-17T04:50:08.274Z,20.73
2023-05-17T04:50:39.605Z,20.73
2023-05-17T04:51:10.933Z,20.73
2023-05-17T04:51:42.242Z,20.71
2023-05-17T04:52:13.583Z,20.71
2023-05-17T04:52:45.587Z,20.71
2023-05-17T04:53:16.985Z,20.71
2023-05-17T04:53:48.344Z,20.70
2023-05-17T04:54:19.639Z,20.70
2023-05-17T04:54:50.958Z,20.70
2023-05-17T04:55:22.266Z,20.71
2023-05-17T04:55:53.586Z,20.73
2023-05-17T04:56:24.935Z,20.70
2023-05-17T04:56:56.237Z,20.72
2023-05-17T04:57:27.532Z,20.71
2023-05-17T04:57:58.856Z,20.71
2023-05-17T04:58:30.311Z,20.72
2023-05-17T04:59:01.867Z,20.71
2023-05-17T04:59:33.205Z,20.70
2023-05-17T05:00:04.986Z,20.71
2023-05-17T05:00:36.284Z,20.71
2023-05-17T05:01:07.609Z,20.70
2023-05-17T05:01:38.930Z,20.71
2023-05-17T05:02:10.270Z,20.73
2023-05-17T05:02:44.722Z,20.71
2023-05-17T05:03:16.199Z,20.73
2023-05-17T05:03:47.638Z,20.75
2023-05-17T05:04:20.082Z,20.75
2023-05-17T05:04:51.534Z,20.73
2023-05-17T05:05:22.936Z,20.75
2023-05-17T05:05:54.259Z,20.73
2023-05-17T05:06:25.579Z,20.73
2023-05-17T05:06:56.914Z,20.73
2023-05-17T05:07:28.286Z,20.74
2023-05-17T05:07:59.590Z,20.74
2023-05-17T05:08:30.886Z,20.74
2023-05-17T05:09:02.768Z,20.74
2023-05-17T05:09:34.095Z,20.73
2023-05-17T05:10:05.885Z,20.74
2023-05-17T05:10:37.245Z,20.73
2023-05-17T05:11:08.639Z,20.72
2023-05-17T05:11:39.978Z,20.73
2023-05-17T05:12:11.300Z,20.74
2023-05-17T05:12:42.626Z,20.74
2023-05-17T05:13:13.925Z,20.74
2023-05-17T05:13:45.242Z,20.73
2023-05-17T05:14:16.556Z,20.73
2023-05-17T05:14:47.962Z,20.75
2023-05-17T05:15:19.296Z,20.74
2023-05-17T05:15:50.606Z,20.75
2023-05-17T05:16:21.956Z,20.76
2023-05-17T05:16:53.257Z,20.75
2023-05-17T05:17:24.801Z,20.76
2023-05-17T05:17:56.296Z,20.76
2023-05-17T05:18:27.879Z,20.75
2023-05-17T05:18:59.570Z,20.75
2023-05-17T05:19:31.149Z,20.75
2023-05-17T05:20:02.630Z,20.77
2023-05-17T05:20:34.010Z,20.76
2023-05-17T05:21:05.296Z,20.77
2023-05-17T05:21:36.622Z,20.78
2023-05-17T05:22:07.964Z,20.77
2023-05-17T05:22:39.290Z,20.77
2023-05-17T05:23:10.641Z,20.76
2023-05-17T05:23:41.972Z,20.75
2023-05-17T05:24:13.329Z,20.76
2023-05-17T05:24:44.740Z,20.77
2023-05-17T05:25:16.081Z,20.76
2023-05-17T05:25:47.471Z,20.76
2023-05-17T05:26:18.805Z,20.75
2023-05-17T05:26:50.149Z,20.75
2023-05-17T05:27:21.455Z,20.76
2023-05-17T05:27:52.794Z,20.75
2023-05-17T05:28:24.106Z,20.78
2023-05-17T05:28:55.437Z,20.75
2023-05-17T05:29:26.765Z,20.74
2023-05-17T05:29:58.081Z,20.73
2023-05-17T05:30:29.392Z,20.75
2023-05-17T05:31:00.749Z,20.76
2023-05-17T05:31:32.275Z,20.74
2023-05-17T05:32:03.632Z,20.75
2023-05-17T05:32:35.089Z,20.76
2023-05-17T05:33:06.602Z,20.76
2023-05-17T05:33:38.138Z,20.77
2023-05-17T05:34:09.693Z,20.76
2023-05-17T05:34:41.079Z,20.78
2023-05-17T05:35:12.429Z,20.75
2023-05-17T05:35:43.725Z,20.75
2023-05-17T05:36:15.055Z,20.76
2023-05-17T05:36:46.393Z,20.76
2023-05-17T05:37:18.699Z,20.76
2023-05-17T05:37:50.086Z,20.77
2023-05-17T05:38:21.414Z,20.75
2023-05-17T05:38:52.812Z,20.76
2023-05-17T05:39:24.138Z,20.76
2023-05-17T05:39:55.478Z,20.75
2023-05-17T05:40:26.966Z,20.75
2023-05-17T05:40:58.399Z,20.75
2023-05-17T05:41:29.775Z,20.76
2023-05-17T05:42:01.107Z,20.75
2023-05-17T05:42:32.416Z,20.78
2023-05-17T05:43:03.744Z,20.79
2023-05-17T05:43:35.045Z,20.77
2023-05-17T05:44:06.435Z,20.77
2023-05-17T05:44:37.807Z,20.79
2023-05-17T05:45:09.848Z,20.77
2023-05-17T05:45:41.211Z,20.79
2023-05-17T05:46:12.556Z,20.78
2023-05-17T05:46:43.914Z,20.79
2023-05-17T05:47:15.230Z,20.79
2023-05-17T05:47:46.734Z,20.78
2023-05-17T05:48:18.177Z,20.78
2023-05-17T05:48:49.591Z,20.79
2023-05-17T05:49:21.066Z,20.79
2023-05-17T05:49:52.362Z,20.77
2023-05-17T05:50:23.678Z,20.78
2023-05-17T05:50:54.980Z,20.77
2023-05-17T05:51:26.334Z,20.79
2023-05-17T05:51:57.662Z,20.77
2023-05-17T05:52:28.959Z,20.80
2023-05-17T05:53:14.344Z,20.80
2023-05-17T05:53:49.246Z,20.79
2023-05-17T05:54:20.569Z,20.80
2023-05-17T05:54:51.892Z,20.80
2023-05-17T05:55:23.328Z,20.79
2023-05-17T05:55:54.715Z,20.77
2023-05-17T05:56:26.058Z,20.77
2023-05-17T05:56:57.414Z,20.78
2023-05-17T05:57:28.722Z,20.77
2023-05-17T05:58:00.036Z,20.79
2023-05-17T05:58:31.448Z,20.79
2023-05-17T05:59:02.770Z,20.79
2023-05-17T05:59:34.131Z,20.78
2023-05-17T06:00:05.786Z,20.77
2023-05-17T06:00:37.181Z,20.79
2023-05-17T06:01:08.566Z,20.78
2023-05-17T06:01:39.933Z,20.79
2023-05-17T06:02:11.287Z,20.82
2023-05-17T06:02:42.696Z,20.79
2023-05-17T06:03:14.367Z,20.79
2023-05-17T06:03:45.727Z,20.80
2023-05-17T06:04:17.091Z,20.81
2023-05-17T06:04:48.450Z,20.82
2023-05-17T06:05:19.873Z,20.82
2023-05-17T06:05:51.260Z,20.80
2023-05-17T06:06:22.724Z,20.77
2023-05-17T06:06:54.435Z,20.79
2023-05-17T06:07:25.896Z,20.78
2023-05-17T06:07:57.221Z,20.78
2023-05-17T06:08:28.514Z,20.79
2023-05-17T06:08:59.982Z,20.81
2023-05-17T06:09:31.300Z,20.81
2023-05-17T06:10:02.668Z,20.82
2023-05-17T06:10:33.958Z,20.80
2023-05-17T06:11:05.297Z,20.82
2023-05-17T06:11:36.641Z,20.82
2023-05-17T06:12:08.092Z,20.82
2023-05-17T06:12:39.424Z,20.81
2023-05-17T06:13:10.721Z,20.82
2023-05-17T06:13:42.009Z,20.81
2023-05-17T06:14:13.337Z,20.79
2023-05-17T06:14:44.672Z,20.80
2023-05-17T06:15:16.055Z,20.80
2023-05-17T06:15:47.363Z,20.82
2023-05-17T06:16:18.678Z,20.81
2023-05-17T06:16:50.031Z,20.83
2023-05-17T06:17:21.464Z,20.82
2023-05-17T06:17:53.014Z,20.82
2023-05-17T06:18:24.479Z,20.82
2023-05-17T06:18:55.953Z,20.84
2023-05-17T06:19:27.605Z,20.82
2023-05-17T06:19:59.288Z,20.84
2023-05-17T06:20:31.010Z,20.84
2023-05-17T06:21:02.577Z,20.83
2023-05-17T06:21:33.920Z,20.85
2023-05-17T06:22:05.331Z,20.85
2023-05-17T06:22:36.652Z,20.83
2023-05-17T06:23:07.990Z,20.83
2023-05-17T06:23:39.335Z,20.84
2023-05-17T06:24:10.673Z,20.83
2023-05-17T06:24:41.979Z,20.82
2023-05-17T06:25:13.307Z,20.84
2023-05-17T06:25:44.616Z,20.81
2023-05-17T06:26:15.960Z,20.81
2023-05-17T06:26:47.285Z,20.84
2023-05-17T06:27:18.596Z,20.82
2023-05-17T06:27:49.928Z,20.85
2023-05-17T06:28:21.279Z,20.84
2023-05-17T06:28:52.726Z,20.84
2023-05-17T06:29:24.187Z,20.84
2023-05-17T06:29:55.518Z,20.85
2023-05-17T06:30:27.093Z,20.85
2023-05-17T06:30:58.684Z,20.84
2023-05-17T06:31:29.986Z,20.83
2023-05-17T06:32:01.299Z,20.84
2023-05-17T06:32:32.694Z,20.85
2023-05-17T06:33:04.132Z,20.83
2023-05-17T06:33:37.970Z,20.83
2023-05-17T06:34:09.382Z,20.83
2023-05-17T06:34:40.733Z,20.83
2023-05-17T06:35:12.052Z,20.83
2023-05-17T06:35:55.652Z,20.84
2023-05-17T06:36:27.827Z,20.85
2023-05-17T06:36:59.289Z,20.86
2023-05-17T06:37:30.624Z,20.85
2023-05-17T06:38:02.130Z,20.83
2023-05-17T06:38:33.487Z,20.84
2023-05-17T06:39:04.823Z,20.82
2023-05-17T06:39:36.142Z,20.83
2023-05-17T06:40:42.118Z,20.84
2023-05-17T06:41:13.465Z,20.84
2023-05-17T06:41:44.781Z,20.84
2023-05-17T06:42:17.821Z,20.85
2023-05-17T06:42:50.125Z,20.86
2023-05-17T06:43:21.583Z,20.87
2023-05-17T06:43:52.908Z,20.85
2023-05-17T06:44:24.275Z,20.86
2023-05-17T06:44:55.615Z,20.86
2023-05-17T06:45:26.988Z,20.88
2023-05-17T06:45:58.345Z,20.88
2023-05-17T06:46:29.685Z,20.88
2023-05-17T06:47:01.021Z,20.87
2023-05-17T06:47:32.421Z,20.85
2023-05-17T06:48:04.008Z,20.84
2023-05-17T06:48:35.571Z,20.87
2023-05-17T06:49:07.057Z,20.89
2023-05-17T06:49:38.415Z,20.88
2023-05-17T06:50:09.745Z,20.88
2023-05-17T06:50:43.108Z,20.88
2023-05-17T06:51:14.462Z,20.88
2023-05-17T06:51:45.771Z,20.87
2023-05-17T06:52:17.298Z,20.88